Rosebud, Texas
Current Conditions -  °F | °C
As of 8:55 AM on Tuesday 21 Oct 2014 (Local Time) from KT35 Reporting Station
Haze Haze  
Wind Chill: 16°   Ceiling: Unl
Heat Index: 16°   Visibility: 5mi
Dew Point: 15°   Wind: 0mph
Humidity: 98%   Direction: NA
Pressure: 30.1"   Gusts: NA
Location:  31.07°N, 96.98°W
Report Text: KT35 211355Z AUTO 00000KT 5SM BR CLR 16/15 A3010 RMK AO2 T01550152
Loading
Personal Weather Stations






























Interactive Weather Map
Tropical Storm Tracking
New forecast layout! Learn more

10-Day Weather Forecast

Advertisements
Track Severe Weather on mobile